sensor_id;sensor_type;location;lat;lon;timestamp;temperature;humidity
37274;DHT22;23161;51.250;5.554;2022-12-22T00:01:28;9.60;99.90
37274;DHT22;23161;51.250;5.554;2022-12-22T00:04:12;9.70;99.90
37274;DHT22;23161;51.250;5.554;2022-12-22T00:06:57;9.70;99.90
37274;DHT22;23161;51.250;5.554;2022-12-22T00:09:42;9.70;99.90
37274;DHT22;23161;51.250;5.554;2022-12-22T00:12:26;9.60;99.90
37274;DHT22;23161;51.250;5.554;2022-12-22T00:15:14;9.60;99.90
37274;DHT22;23161;51.250;5.554;2022-12-22T00:17:59;9.60;99.90
37274;DHT22;23161;51.250;5.554;2022-12-22T00:20:44;9.70;99.90
37274;DHT22;23161;51.250;5.554;2022-12-22T00:23:29;9.70;99.90
37274;DHT22;23161;51.250;5.554;2022-12-22T00:26:14;9.70;99.90
37274;DHT22;23161;51.250;5.554;2022-12-22T00:28:59;9.60;99.90
37274;DHT22;23161;51.250;5.554;2022-12-22T00:31:44;9.70;99.90
37274;DHT22;23161;51.250;5.554;2022-12-22T00:34:28;9.70;99.90
37274;DHT22;23161;51.250;5.554;2022-12-22T00:37:13;9.70;99.90
37274;DHT22;23161;51.250;5.554;2022-12-22T00:39:57;9.70;99.90
37274;DHT22;23161;51.250;5.554;2022-12-22T00:42:42;9.60;99.90
37274;DHT22;23161;51.250;5.554;2022-12-22T00:45:27;9.70;99.90
37274;DHT22;23161;51.250;5.554;2022-12-22T00:48:21;9.60;99.90
37274;DHT22;23161;51.250;5.554;2022-12-22T00:51:07;9.70;99.90
37274;DHT22;23161;51.250;5.554;2022-12-22T00:53:52;9.70;99.90
37274;DHT22;23161;51.250;5.554;2022-12-22T00:56:36;9.70;99.90
37274;DHT22;23161;51.250;5.554;2022-12-22T00:59:20;9.70;99.90
37274;DHT22;23161;51.250;5.554;2022-12-22T01:02:04;9.80;99.90
37274;DHT22;23161;51.250;5.554;2022-12-22T01:04:49;9.70;99.90
37274;DHT22;23161;51.250;5.554;2022-12-22T01:07:34;9.70;99.90
37274;DHT22;23161;51.250;5.554;2022-12-22T01:10:19;9.70;99.90
37274;DHT22;23161;51.250;5.554;2022-12-22T01:13:08;9.80;99.90
37274;DHT22;23161;51.250;5.554;2022-12-22T01:15:53;9.80;99.90
37274;DHT22;23161;51.250;5.554;2022-12-22T01:18:37;9.80;99.90
37274;DHT22;23161;51.250;5.554;2022-12-22T01:21:22;9.80;99.90
37274;DHT22;23161;51.250;5.554;2022-12-22T01:24:12;9.70;99.90
37274;DHT22;23161;51.250;5.554;2022-12-22T01:26:56;9.70;99.90
37274;DHT22;23161;51.250;5.554;2022-12-22T01:29:41;9.70;99.90
37274;DHT22;23161;51.250;5.554;2022-12-22T01:32:25;9.80;99.90
37274;DHT22;23161;51.250;5.554;2022-12-22T01:35:19;9.80;99.90
37274;DHT22;23161;51.250;5.554;2022-12-22T01:38:03;9.80;99.90
37274;DHT22;23161;51.250;5.554;2022-12-22T01:40:48;9.80;99.90
37274;DHT22;23161;51.250;5.554;2022-12-22T01:43:32;9.80;99.90
37274;DHT22;23161;51.250;5.554;2022-12-22T01:46:19;9.80;99.90
37274;DHT22;23161;51.250;5.554;2022-12-22T01:49:06;9.90;99.90
37274;DHT22;23161;51.250;5.554;2022-12-22T01:51:50;9.80;99.90
37274;DHT22;23161;51.250;5.554;2022-12-22T01:54:34;9.80;99.90
37274;DHT22;23161;51.250;5.554;2022-12-22T01:57:18;9.90;99.90
37274;DHT22;23161;51.250;5.554;2022-12-22T02:00:03;9.90;99.90
37274;DHT22;23161;51.250;5.554;2022-12-22T02:02:47;9.90;99.90
37274;DHT22;23161;51.250;5.554;2022-12-22T02:05:32;9.90;99.90
37274;DHT22;23161;51.250;5.554;2022-12-22T02:08:20;9.80;99.90
37274;DHT22;23161;51.250;5.554;2022-12-22T02:25:25;9.90;99.90
37274;DHT22;23161;51.250;5.554;2022-12-22T02:28:12;9.80;99.90
37274;DHT22;23161;51.250;5.554;2022-12-22T02:30:56;9.90;99.90
37274;DHT22;23161;51.250;5.554;2022-12-22T02:33:41;9.80;99.90
37274;DHT22;23161;51.250;5.554;2022-12-22T02:39:28;9.80;99.90
37274;DHT22;23161;51.250;5.554;2022-12-22T02:42:19;9.90;99.90
37274;DHT22;23161;51.250;5.554;2022-12-22T02:48:07;9.90;99.90
37274;DHT22;23161;51.250;5.554;2022-12-22T02:51:26;9.90;99.90
37274;DHT22;23161;51.250;5.554;2022-12-22T02:54:03;9.90;99.90
37274;DHT22;23161;51.250;5.554;2022-12-22T02:56:48;9.90;99.90
37274;DHT22;23161;51.250;5.554;2022-12-22T02:59:32;9.80;99.90
37274;DHT22;23161;51.250;5.554;2022-12-22T03:02:16;9.90;99.90
37274;DHT22;23161;51.250;5.554;2022-12-22T03:05:02;9.80;99.90
37274;DHT22;23161;51.250;5.554;2022-12-22T03:07:46;9.80;99.90
37274;DHT22;23161;51.250;5.554;2022-12-22T03:10:31;9.90;99.90
37274;DHT22;23161;51.250;5.554;2022-12-22T03:13:15;9.80;99.90
37274;DHT22;23161;51.250;5.554;2022-12-22T03:15:59;9.90;99.90
37274;DHT22;23161;51.250;5.554;2022-12-22T03:18:43;9.90;99.90
37274;DHT22;23161;51.250;5.554;2022-12-22T03:21:27;9.70;99.90
37274;DHT22;23161;51.250;5.554;2022-12-22T03:24:12;9.90;99.90
37274;DHT22;23161;51.250;5.554;2022-12-22T03:26:56;9.90;99.90
37274;DHT22;23161;51.250;5.554;2022-12-22T03:29:21;9.80;99.90
37274;DHT22;23161;51.250;5.554;2022-12-22T03:31:47;9.80;99.90
37274;DHT22;23161;51.250;5.554;2022-12-22T03:34:13;9.90;99.90
37274;DHT22;23161;51.250;5.554;2022-12-22T03:36:39;9.90;99.90
37274;DHT22;23161;51.250;5.554;2022-12-22T03:39:05;9.90;99.90
37274;DHT22;23161;51.250;5.554;2022-12-22T03:41:31;9.90;99.90
37274;DHT22;23161;51.250;5.554;2022-12-22T03:44:15;10.00;99.90
37274;DHT22;23161;51.250;5.554;2022-12-22T03:47:00;9.90;99.90
37274;DHT22;23161;51.250;5.554;2022-12-22T03:49:26;9.90;99.90
37274;DHT22;23161;51.250;5.554;2022-12-22T03:51:52;9.80;99.90
37274;DHT22;23161;51.250;5.554;2022-12-22T03:54:19;9.70;99.90
37274;DHT22;23161;51.250;5.554;2022-12-22T03:56:45;9.70;99.90
37274;DHT22;23161;51.250;5.554;2022-12-22T03:59:11;9.80;99.90
37274;DHT22;23161;51.250;5.554;2022-12-22T04:01:40;9.70;99.90
37274;DHT22;23161;51.250;5.554;2022-12-22T04:04:07;9.70;99.90
37274;DHT22;23161;51.250;5.554;2022-12-22T04:06:32;9.70;99.90
37274;DHT22;23161;51.250;5.554;2022-12-22T04:08:58;9.60;99.90
37274;DHT22;23161;51.250;5.554;2022-12-22T04:11:24;9.70;99.90
37274;DHT22;23161;51.250;5.554;2022-12-22T04:14:09;9.70;99.90
37274;DHT22;23161;51.250;5.554;2022-12-22T04:16:34;9.70;99.90
37274;DHT22;23161;51.250;5.554;2022-12-22T04:19:00;9.60;99.90
37274;DHT22;23161;51.250;5.554;2022-12-22T04:21:26;9.60;99.90
37274;DHT22;23161;51.250;5.554;2022-12-22T04:23:52;9.60;99.90
37274;DHT22;23161;51.250;5.554;2022-12-22T04:26:18;9.60;99.90
37274;DHT22;23161;51.250;5.554;2022-12-22T04:28:44;9.60;99.90
37274;DHT22;23161;51.250;5.554;2022-12-22T04:31:10;9.60;99.90
37274;DHT22;23161;51.250;5.554;2022-12-22T04:33:36;9.60;99.90
37274;DHT22;23161;51.250;5.554;2022-12-22T04:36:02;9.60;99.90
37274;DHT22;23161;51.250;5.554;2022-12-22T04:38:27;9.60;99.90
37274;DHT22;23161;51.250;5.554;2022-12-22T04:40:53;9.60;99.90
37274;DHT22;23161;51.250;5.554;2022-12-22T04:43:19;9.60;99.90
37274;DHT22;23161;51.250;5.554;2022-12-22T04:45:44;9.70;99.90
37274;DHT22;23161;51.250;5.554;2022-12-22T04:48:10;9.70;99.90
37274;DHT22;23161;51.250;5.554;2022-12-22T04:50:36;9.70;99.90
37274;DHT22;23161;51.250;5.554;2022-12-22T04:53:01;9.70;99.90
37274;DHT22;23161;51.250;5.554;2022-12-22T04:55:28;9.70;99.90
37274;DHT22;23161;51.250;5.554;2022-12-22T04:57:53;9.70;99.90
37274;DHT22;23161;51.250;5.554;2022-12-22T05:00:19;9.70;99.90
37274;DHT22;23161;51.250;5.554;2022-12-22T05:02:45;9.70;99.90
37274;DHT22;23161;51.250;5.554;2022-12-22T05:05:11;9.70;99.90
37274;DHT22;23161;51.250;5.554;2022-12-22T05:07:37;9.70;99.90
37274;DHT22;23161;51.250;5.554;2022-12-22T05:10:03;9.80;99.90
37274;DHT22;23161;51.250;5.554;2022-12-22T05:12:29;9.70;99.90
37274;DHT22;23161;51.250;5.554;2022-12-22T05:15:13;9.70;99.90
37274;DHT22;23161;51.250;5.554;2022-12-22T05:17:39;9.70;99.90
37274;DHT22;23161;51.250;5.554;2022-12-22T05:20:05;9.70;99.90
37274;DHT22;23161;51.250;5.554;2022-12-22T05:22:31;9.70;99.90
37274;DHT22;23161;51.250;5.554;2022-12-22T05:24:56;9.70;99.90
37274;DHT22;23161;51.250;5.554;2022-12-22T05:27:22;9.70;99.90
37274;DHT22;23161;51.250;5.554;2022-12-22T05:29:48;9.80;99.90
37274;DHT22;23161;51.250;5.554;2022-12-22T05:32:13;9.70;99.90
37274;DHT22;23161;51.250;5.554;2022-12-22T05:34:39;9.70;99.90
37274;DHT22;23161;51.250;5.554;2022-12-22T05:37:05;9.70;99.90
37274;DHT22;23161;51.250;5.554;2022-12-22T05:39:31;9.70;99.90
37274;DHT22;23161;51.250;5.554;2022-12-22T05:41:56;9.70;99.90
37274;DHT22;23161;51.250;5.554;2022-12-22T05:44:22;9.60;99.90
37274;DHT22;23161;51.250;5.554;2022-12-22T05:46:49;9.50;99.90
37274;DHT22;23161;51.250;5.554;2022-12-22T05:49:15;9.50;99.90
37274;DHT22;23161;51.250;5.554;2022-12-22T05:51:41;9.50;99.90
37274;DHT22;23161;51.250;5.554;2022-12-22T05:54:07;9.50;99.90
37274;DHT22;23161;51.250;5.554;2022-12-22T05:56:33;9.50;99.90
37274;DHT22;23161;51.250;5.554;2022-12-22T05:58:59;9.50;99.90
37274;DHT22;23161;51.250;5.554;2022-12-22T06:01:25;9.50;99.90
37274;DHT22;23161;51.250;5.554;2022-12-22T06:03:50;9.40;99.90
37274;DHT22;23161;51.250;5.554;2022-12-22T06:06:16;9.40;99.90
37274;DHT22;23161;51.250;5.554;2022-12-22T06:08:42;9.40;99.90
37274;DHT22;23161;51.250;5.554;2022-12-22T06:11:07;9.40;99.90
37274;DHT22;23161;51.250;5.554;2022-12-22T06:13:33;9.50;99.90
37274;DHT22;23161;51.250;5.554;2022-12-22T06:15:59;9.50;99.90
37274;DHT22;23161;51.250;5.554;2022-12-22T06:18:25;9.50;99.90
37274;DHT22;23161;51.250;5.554;2022-12-22T06:20:51;9.40;99.90
37274;DHT22;23161;51.250;5.554;2022-12-22T06:23:17;9.40;99.90
37274;DHT22;23161;51.250;5.554;2022-12-22T06:25:54;9.40;99.90
37274;DHT22;23161;51.250;5.554;2022-12-22T06:28:20;9.50;99.90
37274;DHT22;23161;51.250;5.554;2022-12-22T06:30:46;9.50;99.90
37274;DHT22;23161;51.250;5.554;2022-12-22T06:33:12;9.50;99.90
37274;DHT22;23161;51.250;5.554;2022-12-22T06:35:38;9.60;99.90
37274;DHT22;23161;51.250;5.554;2022-12-22T06:38:04;9.60;99.90
37274;DHT22;23161;51.250;5.554;2022-12-22T06:40:29;9.60;99.90
37274;DHT22;23161;51.250;5.554;2022-12-22T06:42:55;9.60;99.90
37274;DHT22;23161;51.250;5.554;2022-12-22T06:45:39;9.60;99.90
37274;DHT22;23161;51.250;5.554;2022-12-22T06:48:06;9.60;99.90
37274;DHT22;23161;51.250;5.554;2022-12-22T06:50:32;9.60;99.90
37274;DHT22;23161;51.250;5.554;2022-12-22T06:52:57;9.60;99.90
37274;DHT22;23161;51.250;5.554;2022-12-22T06:55:24;9.70;99.90
37274;DHT22;23161;51.250;5.554;2022-12-22T06:57:49;9.70;99.90
37274;DHT22;23161;51.250;5.554;2022-12-22T07:00:15;9.70;99.90
37274;DHT22;23161;51.250;5.554;2022-12-22T07:02:41;9.70;99.90
37274;DHT22;23161;51.250;5.554;2022-12-22T07:05:07;9.60;99.90
37274;DHT22;23161;51.250;5.554;2022-12-22T07:07:33;9.60;99.90
37274;DHT22;23161;51.250;5.554;2022-12-22T07:09:59;9.60;99.90
37274;DHT22;23161;51.250;5.554;2022-12-22T07:12:24;9.60;99.90
37274;DHT22;23161;51.250;5.554;2022-12-22T07:14:50;9.70;99.90
37274;DHT22;23161;51.250;5.554;2022-12-22T07:17:16;9.60;99.90
37274;DHT22;23161;51.250;5.554;2022-12-22T07:19:42;9.60;99.90
37274;DHT22;23161;51.250;5.554;2022-12-22T07:22:07;9.70;99.90
37274;DHT22;23161;51.250;5.554;2022-12-22T07:24:33;9.70;99.90
37274;DHT22;23161;51.250;5.554;2022-12-22T07:26:59;9.70;99.90
37274;DHT22;23161;51.250;5.554;2022-12-22T07:29:24;9.70;99.90
37274;DHT22;23161;51.250;5.554;2022-12-22T07:31:50;9.70;99.90
37274;DHT22;23161;51.250;5.554;2022-12-22T07:34:16;9.60;99.90
37274;DHT22;23161;51.250;5.554;2022-12-22T07:36:42;9.60;99.90
37274;DHT22;23161;51.250;5.554;2022-12-22T07:39:08;9.60;99.90
37274;DHT22;23161;51.250;5.554;2022-12-22T07:41:34;9.60;99.90
37274;DHT22;23161;51.250;5.554;2022-12-22T07:44:18;9.60;99.90
37274;DHT22;23161;51.250;5.554;2022-12-22T07:46:44;9.70;99.90
37274;DHT22;23161;51.250;5.554;2022-12-22T07:49:10;9.60;99.90
37274;DHT22;23161;51.250;5.554;2022-12-22T07:51:55;9.60;99.90
37274;DHT22;23161;51.250;5.554;2022-12-22T07:54:20;9.60;99.90
37274;DHT22;23161;51.250;5.554;2022-12-22T07:56:49;9.60;99.90
37274;DHT22;23161;51.250;5.554;2022-12-22T07:59:15;9.60;99.90
37274;DHT22;23161;51.250;5.554;2022-12-22T08:01:41;9.60;99.90
37274;DHT22;23161;51.250;5.554;2022-12-22T08:04:08;9.60;99.90
37274;DHT22;23161;51.250;5.554;2022-12-22T08:06:33;9.60;99.90
37274;DHT22;23161;51.250;5.554;2022-12-22T08:08:59;9.50;99.90
37274;DHT22;23161;51.250;5.554;2022-12-22T08:11:25;9.50;99.90
37274;DHT22;23161;51.250;5.554;2022-12-22T08:13:51;9.50;99.90
37274;DHT22;23161;51.250;5.554;2022-12-22T08:16:17;9.60;99.90
37274;DHT22;23161;51.250;5.554;2022-12-22T08:18:44;9.60;99.90
37274;DHT22;23161;51.250;5.554;2022-12-22T08:21:10;9.70;99.90
37274;DHT22;23161;51.250;5.554;2022-12-22T08:23:36;9.60;99.90
37274;DHT22;23161;51.250;5.554;2022-12-22T08:26:06;9.70;99.90
37274;DHT22;23161;51.250;5.554;2022-12-22T08:28:36;9.70;99.90
37274;DHT22;23161;51.250;5.554;2022-12-22T08:31:03;9.70;99.90
37274;DHT22;23161;51.250;5.554;2022-12-22T08:33:29;9.70;99.90
37274;DHT22;23161;51.250;5.554;2022-12-22T08:35:55;9.70;99.90
37274;DHT22;23161;51.250;5.554;2022-12-22T08:38:20;9.60;99.90
37274;DHT22;23161;51.250;5.554;2022-12-22T08:40:46;9.70;99.90
37274;DHT22;23161;51.250;5.554;2022-12-22T08:43:12;9.70;99.90
37274;DHT22;23161;51.250;5.554;2022-12-22T08:45:39;9.60;99.90
37274;DHT22;23161;51.250;5.554;2022-12-22T08:48:06;9.60;99.90
37274;DHT22;23161;51.250;5.554;2022-12-22T08:50:31;9.50;99.90
37274;DHT22;23161;51.250;5.554;2022-12-22T08:53:01;9.50;99.90
37274;DHT22;23161;51.250;5.554;2022-12-22T08:55:27;9.60;99.90
37274;DHT22;23161;51.250;5.554;2022-12-22T08:57:52;9.70;99.90
37274;DHT22;23161;51.250;5.554;2022-12-22T09:00:18;9.70;99.90
37274;DHT22;23161;51.250;5.554;2022-12-22T09:02:44;9.90;99.90
37274;DHT22;23161;51.250;5.554;2022-12-22T09:05:10;10.00;99.90
37274;DHT22;23161;51.250;5.554;2022-12-22T09:07:35;10.00;99.90
37274;DHT22;23161;51.250;5.554;2022-12-22T09:10:01;10.00;99.90
37274;DHT22;23161;51.250;5.554;2022-12-22T09:12:27;10.00;99.90
37274;DHT22;23161;51.250;5.554;2022-12-22T09:14:52;10.10;99.90
37274;DHT22;23161;51.250;5.554;2022-12-22T09:17:18;10.10;99.90
37274;DHT22;23161;51.250;5.554;2022-12-22T09:19:44;10.30;99.90
37274;DHT22;23161;51.250;5.554;2022-12-22T09:22:09;10.40;99.90
37274;DHT22;23161;51.250;5.554;2022-12-22T09:24:35;10.40;99.90
37274;DHT22;23161;51.250;5.554;2022-12-22T09:27:01;10.50;99.90
37274;DHT22;23161;51.250;5.554;2022-12-22T09:29:28;10.40;99.90
37274;DHT22;23161;51.250;5.554;2022-12-22T09:31:53;10.40;99.90
37274;DHT22;23161;51.250;5.554;2022-12-22T09:34:19;10.60;99.90
37274;DHT22;23161;51.250;5.554;2022-12-22T09:36:45;10.70;99.90
37274;DHT22;23161;51.250;5.554;2022-12-22T09:39:11;10.50;99.90
37274;DHT22;23161;51.250;5.554;2022-12-22T09:44:20;10.70;99.90
37274;DHT22;23161;51.250;5.554;2022-12-22T09:46:47;11.30;99.90
37274;DHT22;23161;51.250;5.554;2022-12-22T09:49:14;11.80;99.90
37274;DHT22;23161;51.250;5.554;2022-12-22T09:51:41;12.90;99.90
37274;DHT22;23161;51.250;5.554;2022-12-22T09:54:08;14.70;99.90
37274;DHT22;23161;51.250;5.554;2022-12-22T09:56:35;15.50;99.90
37274;DHT22;23161;51.250;5.554;2022-12-22T09:59:00;16.60;99.90
37274;DHT22;23161;51.250;5.554;2022-12-22T10:04:03;16.90;99.90
37274;DHT22;23161;51.250;5.554;2022-12-22T10:09:07;17.30;99.90
37274;DHT22;23161;51.250;5.554;2022-12-22T10:11:36;17.70;99.90
37274;DHT22;23161;51.250;5.554;2022-12-22T10:14:02;17.20;99.90
37274;DHT22;23161;51.250;5.554;2022-12-22T10:16:27;16.00;99.90
37274;DHT22;23161;51.250;5.554;2022-12-22T10:18:58;15.20;99.90
37274;DHT22;23161;51.250;5.554;2022-12-22T10:21:24;14.90;99.90
37274;DHT22;23161;51.250;5.554;2022-12-22T10:23:50;14.40;99.90
37274;DHT22;23161;51.250;5.554;2022-12-22T10:28:43;14.20;99.90
37274;DHT22;23161;51.250;5.554;2022-12-22T10:31:11;14.30;99.90
37274;DHT22;23161;51.250;5.554;2022-12-22T10:33:37;14.20;99.90
37274;DHT22;23161;51.250;5.554;2022-12-22T10:36:04;13.80;99.90
37274;DHT22;23161;51.250;5.554;2022-12-22T10:38:35;13.20;99.90
37274;DHT22;23161;51.250;5.554;2022-12-22T10:41:02;12.60;99.90
37274;DHT22;23161;51.250;5.554;2022-12-22T10:43:30;12.30;99.90
37274;DHT22;23161;51.250;5.554;2022-12-22T10:45:57;12.10;99.90
37274;DHT22;23161;51.250;5.554;2022-12-22T10:48:26;12.20;99.90
37274;DHT22;23161;51.250;5.554;2022-12-22T10:50:52;14.00;99.90
37274;DHT22;23161;51.250;5.554;2022-12-22T10:53:21;15.50;99.90
37274;DHT22;23161;51.250;5.554;2022-12-22T10:56:05;16.70;99.90
37274;DHT22;23161;51.250;5.554;2022-12-22T10:58:32;16.50;99.90
37274;DHT22;23161;51.250;5.554;2022-12-22T11:01:10;16.90;99.90
37274;DHT22;23161;51.250;5.554;2022-12-22T11:03:36;15.80;99.90
37274;DHT22;23161;51.250;5.554;2022-12-22T11:06:04;15.20;99.90
37274;DHT22;23161;51.250;5.554;2022-12-22T11:08:35;14.70;99.90
37274;DHT22;23161;51.250;5.554;2022-12-22T11:24:20;12.60;99.90
37274;DHT22;23161;51.250;5.554;2022-12-22T11:26:54;12.70;99.90
37274;DHT22;23161;51.250;5.554;2022-12-22T11:34:29;12.40;99.90
37274;DHT22;23161;51.250;5.554;2022-12-22T11:44:40;12.60;99.90
37274;DHT22;23161;51.250;5.554;2022-12-22T11:47:19;12.30;99.90
37274;DHT22;23161;51.250;5.554;2022-12-22T12:00:10;11.50;99.90
37274;DHT22;23161;51.250;5.554;2022-12-22T12:05:10;11.30;99.90
37274;DHT22;23161;51.250;5.554;2022-12-22T12:07:42;11.40;99.90
37274;DHT22;23161;51.250;5.554;2022-12-22T12:10:14;11.50;99.90
37274;DHT22;23161;51.250;5.554;2022-12-22T12:12:45;11.60;99.90
37274;DHT22;23161;51.250;5.554;2022-12-22T12:30:31;12.10;99.90
37274;DHT22;23161;51.250;5.554;2022-12-22T12:35:30;11.70;99.90
37274;DHT22;23161;51.250;5.554;2022-12-22T12:41:08;11.40;99.90
37274;DHT22;23161;51.250;5.554;2022-12-22T12:43:38;11.40;99.90
37274;DHT22;23161;51.250;5.554;2022-12-22T12:48:49;11.10;99.90
37274;DHT22;23161;51.250;5.554;2022-12-22T13:10:22;11.00;99.90
37274;DHT22;23161;51.250;5.554;2022-12-22T13:12:49;11.10;99.90
37274;DHT22;23161;51.250;5.554;2022-12-22T13:15:35;11.00;99.90
37274;DHT22;23161;51.250;5.554;2022-12-22T13:18:02;10.90;99.90
37274;DHT22;23161;51.250;5.554;2022-12-22T13:20:32;10.80;99.90
37274;DHT22;23161;51.250;5.554;2022-12-22T13:23:00;10.80;99.90
37274;DHT22;23161;51.250;5.554;2022-12-22T13:25:37;10.60;99.90
37274;DHT22;23161;51.250;5.554;2022-12-22T13:28:04;10.50;99.90
37274;DHT22;23161;51.250;5.554;2022-12-22T13:30:30;10.50;99.90
37274;DHT22;23161;51.250;5.554;2022-12-22T13:32:57;10.50;99.90
37274;DHT22;23161;51.250;5.554;2022-12-22T13:35:36;10.60;99.90
37274;DHT22;23161;51.250;5.554;2022-12-22T13:38:03;10.60;99.90
37274;DHT22;23161;51.250;5.554;2022-12-22T13:40:29;10.60;99.90
37274;DHT22;23161;51.250;5.554;2022-12-22T13:47:53;10.60;99.90
37274;DHT22;23161;51.250;5.554;2022-12-22T13:50:24;10.60;99.90
37274;DHT22;23161;51.250;5.554;2022-12-22T13:52:50;10.60;99.90
37274;DHT22;23161;51.250;5.554;2022-12-22T13:55:27;10.60;99.90
37274;DHT22;23161;51.250;5.554;2022-12-22T13:57:54;10.60;99.90
37274;DHT22;23161;51.250;5.554;2022-12-22T14:00:24;10.50;99.90
37274;DHT22;23161;51.250;5.554;2022-12-22T14:02:50;10.50;99.90
37274;DHT22;23161;51.250;5.554;2022-12-22T14:05:16;10.40;99.90
37274;DHT22;23161;51.250;5.554;2022-12-22T14:10:27;10.40;99.90
37274;DHT22;23161;51.250;5.554;2022-12-22T14:12:54;10.30;99.90
37274;DHT22;23161;51.250;5.554;2022-12-22T14:15:39;10.30;99.90
37274;DHT22;23161;51.250;5.554;2022-12-22T14:18:05;10.30;99.90
37274;DHT22;23161;51.250;5.554;2022-12-22T14:20:34;10.20;99.90
37274;DHT22;23161;51.250;5.554;2022-12-22T14:23:04;10.10;99.90
37274;DHT22;23161;51.250;5.554;2022-12-22T14:25:33;10.10;99.90
37274;DHT22;23161;51.250;5.554;2022-12-22T14:28:00;9.80;99.90
37274;DHT22;23161;51.250;5.554;2022-12-22T14:30:31;9.80;99.90
37274;DHT22;23161;51.250;5.554;2022-12-22T14:35:48;9.70;99.90
37274;DHT22;23161;51.250;5.554;2022-12-22T14:38:23;9.70;99.90
37274;DHT22;23161;51.250;5.554;2022-12-22T14:40:50;9.60;99.90
37274;DHT22;23161;51.250;5.554;2022-12-22T14:45:46;9.60;99.90
37274;DHT22;23161;51.250;5.554;2022-12-22T14:48:25;9.60;99.90
37274;DHT22;23161;51.250;5.554;2022-12-22T14:50:53;9.50;99.90
37274;DHT22;23161;51.250;5.554;2022-12-22T14:53:42;9.50;99.90
37274;DHT22;23161;51.250;5.554;2022-12-22T14:56:13;9.40;99.90
37274;DHT22;23161;51.250;5.554;2022-12-22T14:58:44;9.30;99.90
37274;DHT22;23161;51.250;5.554;2022-12-22T15:01:11;9.30;99.90
37274;DHT22;23161;51.250;5.554;2022-12-22T15:03:38;9.30;99.90
37274;DHT22;23161;51.250;5.554;2022-12-22T15:06:40;9.20;99.90
37274;DHT22;23161;51.250;5.554;2022-12-22T15:09:23;9.10;99.90
37274;DHT22;23161;51.250;5.554;2022-12-22T15:11:53;9.10;99.90
37274;DHT22;23161;51.250;5.554;2022-12-22T15:14:25;9.00;99.90
37274;DHT22;23161;51.250;5.554;2022-12-22T15:16:55;9.00;99.90
37274;DHT22;23161;51.250;5.554;2022-12-22T15:19:22;9.00;99.90
37274;DHT22;23161;51.250;5.554;2022-12-22T15:21:51;9.00;99.90
37274;DHT22;23161;51.250;5.554;2022-12-22T15:24:17;9.00;99.90
37274;DHT22;23161;51.250;5.554;2022-12-22T15:26:44;9.00;99.90
37274;DHT22;23161;51.250;5.554;2022-12-22T15:29:10;8.90;99.90
37274;DHT22;23161;51.250;5.554;2022-12-22T15:31:37;9.00;99.90
37274;DHT22;23161;51.250;5.554;2022-12-22T15:34:09;8.90;99.90
37274;DHT22;23161;51.250;5.554;2022-12-22T15:36:36;8.90;99.90
37274;DHT22;23161;51.250;5.554;2022-12-22T15:39:02;8.90;99.90
37274;DHT22;23161;51.250;5.554;2022-12-22T15:41:28;9.00;99.90
37274;DHT22;23161;51.250;5.554;2022-12-22T15:43:53;9.00;99.90
37274;DHT22;23161;51.250;5.554;2022-12-22T15:46:19;9.00;99.90
37274;DHT22;23161;51.250;5.554;2022-12-22T15:48:46;9.00;99.90
37274;DHT22;23161;51.250;5.554;2022-12-22T15:51:31;9.00;99.90
37274;DHT22;23161;51.250;5.554;2022-12-22T15:53:58;9.00;99.90
37274;DHT22;23161;51.250;5.554;2022-12-22T15:56:26;9.00;99.90
37274;DHT22;23161;51.250;5.554;2022-12-22T15:58:54;9.10;99.90
37274;DHT22;23161;51.250;5.554;2022-12-22T16:01:20;9.10;99.90
37274;DHT22;23161;51.250;5.554;2022-12-22T16:03:46;9.10;99.90
37274;DHT22;23161;51.250;5.554;2022-12-22T16:06:14;9.10;99.90
37274;DHT22;23161;51.250;5.554;2022-12-22T16:08:48;9.10;99.90
37274;DHT22;23161;51.250;5.554;2022-12-22T16:11:14;9.20;99.90
37274;DHT22;23161;51.250;5.554;2022-12-22T16:13:40;9.20;99.90
37274;DHT22;23161;51.250;5.554;2022-12-22T16:16:06;9.20;99.90
37274;DHT22;23161;51.250;5.554;2022-12-22T16:18:33;9.30;99.90
37274;DHT22;23161;51.250;5.554;2022-12-22T16:21:11;9.30;99.90
37274;DHT22;23161;51.250;5.554;2022-12-22T16:23:40;9.40;99.90
37274;DHT22;23161;51.250;5.554;2022-12-22T16:26:09;9.50;99.90
37274;DHT22;23161;51.250;5.554;2022-12-22T16:28:36;9.50;99.90
37274;DHT22;23161;51.250;5.554;2022-12-22T16:31:02;9.60;99.90
37274;DHT22;23161;51.250;5.554;2022-12-22T16:33:28;9.50;99.90
37274;DHT22;23161;51.250;5.554;2022-12-22T16:35:54;9.60;99.90
37274;DHT22;23161;51.250;5.554;2022-12-22T16:38:20;9.60;99.90
37274;DHT22;23161;51.250;5.554;2022-12-22T16:40:50;9.60;99.90
37274;DHT22;23161;51.250;5.554;2022-12-22T16:43:21;9.70;99.90
37274;DHT22;23161;51.250;5.554;2022-12-22T16:45:48;9.70;99.90
37274;DHT22;23161;51.250;5.554;2022-12-22T16:48:18;9.70;99.90
37274;DHT22;23161;51.250;5.554;2022-12-22T16:50:46;9.70;99.90
37274;DHT22;23161;51.250;5.554;2022-12-22T16:53:13;9.80;99.90
37274;DHT22;23161;51.250;5.554;2022-12-22T16:55:42;9.80;99.90
37274;DHT22;23161;51.250;5.554;2022-12-22T16:58:10;9.80;99.90
37274;DHT22;23161;51.250;5.554;2022-12-22T17:00:37;9.90;99.90
37274;DHT22;23161;51.250;5.554;2022-12-22T17:03:04;9.90;99.90
37274;DHT22;23161;51.250;5.554;2022-12-22T17:05:37;10.00;99.90
37274;DHT22;23161;51.250;5.554;2022-12-22T17:08:17;10.00;99.90
37274;DHT22;23161;51.250;5.554;2022-12-22T17:10:45;10.00;99.90
37274;DHT22;23161;51.250;5.554;2022-12-22T17:13:11;10.00;99.90
37274;DHT22;23161;51.250;5.554;2022-12-22T17:15:37;10.00;99.90
37274;DHT22;23161;51.250;5.554;2022-12-22T17:18:09;10.00;99.90
37274;DHT22;23161;51.250;5.554;2022-12-22T17:20:38;10.10;99.90
37274;DHT22;23161;51.250;5.554;2022-12-22T17:23:04;10.10;99.90
37274;DHT22;23161;51.250;5.554;2022-12-22T17:25:30;10.10;99.90
37274;DHT22;23161;51.250;5.554;2022-12-22T17:27:57;10.10;99.90
37274;DHT22;23161;51.250;5.554;2022-12-22T17:30:26;10.10;99.90
37274;DHT22;23161;51.250;5.554;2022-12-22T17:32:52;10.10;99.90
37274;DHT22;23161;51.250;5.554;2022-12-22T17:35:22;10.10;99.90
37274;DHT22;23161;51.250;5.554;2022-12-22T17:37:49;10.10;99.90
37274;DHT22;23161;51.250;5.554;2022-12-22T17:40:26;10.10;99.90
37274;DHT22;23161;51.250;5.554;2022-12-22T17:42:55;10.10;99.90
37274;DHT22;23161;51.250;5.554;2022-12-22T17:45:23;10.10;99.90
37274;DHT22;23161;51.250;5.554;2022-12-22T17:47:49;10.20;99.90
37274;DHT22;23161;51.250;5.554;2022-12-22T17:50:18;10.10;99.90
37274;DHT22;23161;51.250;5.554;2022-12-22T17:52:44;10.20;99.90
37274;DHT22;23161;51.250;5.554;2022-12-22T17:57:45;10.20;99.90
37274;DHT22;23161;51.250;5.554;2022-12-22T18:00:23;10.20;99.90
37274;DHT22;23161;51.250;5.554;2022-12-22T18:02:50;10.20;99.90
37274;DHT22;23161;51.250;5.554;2022-12-22T18:05:18;10.20;99.90
37274;DHT22;23161;51.250;5.554;2022-12-22T18:07:46;10.20;99.90
37274;DHT22;23161;51.250;5.554;2022-12-22T18:10:25;10.30;99.90
37274;DHT22;23161;51.250;5.554;2022-12-22T18:12:53;10.30;99.90
37274;DHT22;23161;51.250;5.554;2022-12-22T18:15:21;10.30;99.90